West Chenango, New York
Current Conditions -  °F | °C
As of 3:00 PM on Thursday 30 Oct 2014 (Local Time) from KBGM Reporting Station
Overcast Overcast  
Wind Chill: 39°   Ceiling: 3100
Heat Index: 44°   Visibility: 10mi
Dew Point: 32°   Wind: 10mph
Humidity: 63%   Direction: 320°NW
Pressure: 30"   Gusts: NA
Location:  42.1759°N, 75.9402°W
Report Text: KBGM 301900Z 32009KT 10SM OVC031 07/00 A3000 RMK AO2 T00670000
Loading
Personal Weather Stations






























Interactive Weather Map New forecast layout! Learn more

10-Day Weather Forecast

Advertisements
Track Severe Weather on mobile